Time,TemperatureF,DewpointF,PressureIn,WindDirection,WindDirectionDegrees,WindSpeedMPH,WindSpeedGustMPH,Humidity,HourlyPrecipIn,Conditions,Clouds,dailyrainin,SolarRadiationWatts/m^2,SoftwareType,DateUTC
2013-04-30 00:01:00,71.8,55.8,29.73,SSE,150,8.0,9.0,57,0.00,,CLR,0.00,0.00,VWS V14.01,2013-04-30 05:01:00,
2013-04-30 00:06:00,71.7,55.7,29.73,South,190,13.0,16.0,57,0.00,,CLR,0.00,0.00,VWS V14.01,2013-04-30 05:06:00,
2013-04-30 00:11:00,71.7,55.7,29.73,South,172,5.0,11.0,57,0.00,,CLR,0.00,0.00,VWS V14.01,2013-04-30 05:11:00,
2013-04-30 00:16:00,71.7,55.7,29.73,SSW,194,7.0,9.0,57,0.00,,CLR,0.00,0.00,VWS V14.01,2013-04-30 05:16:00,
2013-04-30 00:21:00,71.5,55.5,29.73,SSW,204,4.0,9.0,57,0.00,,CLR,0.00,0.00,VWS V14.01,2013-04-30 05:21:00,
2013-04-30 00:26:00,71.3,55.8,29.73,South,180,0.0,4.0,58,0.00,,CLR,0.00,0.00,VWS V14.01,2013-04-30 05:26:00,
2013-04-30 00:31:00,71.2,55.7,29.73,South,173,14.0,14.0,58,0.00,,CLR,0.00,0.00,VWS V14.01,2013-04-30 05:31:00,
2013-04-30 00:36:00,71.2,55.7,29.73,South,169,8.0,8.0,58,0.00,,CLR,0.00,0.00,VWS V14.01,2013-04-30 05:36:00,
2013-04-30 00:41:00,71.0,55.5,29.73,SSW,198,12.0,13.0,58,0.00,,CLR,0.00,0.00,VWS V14.01,2013-04-30 05:41:00,
2013-04-30 00:46:00,70.8,55.8,29.74,SW,215,0.0,7.0,59,0.00,,CLR,0.00,0.00,VWS V14.01,2013-04-30 05:46:00,
2013-04-30 00:51:00,70.6,55.6,29.74,South,175,2.0,6.0,59,0.00,,CLR,0.00,0.00,VWS V14.01,2013-04-30 05:51:00,
2013-04-30 00:56:00,70.6,56.1,29.74,South,172,3.0,8.0,60,0.00,,CLR,0.00,0.00,VWS V14.01,2013-04-30 05:56:00,
2013-04-30 01:01:00,70.5,56.0,29.74,South,172,1.0,9.0,60,0.00,,CLR,0.00,0.00,VWS V14.01,2013-04-30 06:01:00,
2013-04-30 01:06:00,70.3,55.8,29.74,SSE,167,4.0,12.0,60,0.00,,CLR,0.00,0.00,VWS V14.01,2013-04-30 06:06:00,
2013-04-30 01:11:00,70.3,56.2,29.74,SW,214,6.0,6.0,61,0.00,,CLR,0.00,0.00,VWS V14.01,2013-04-30 06:11:00,
2013-04-30 01:16:00,70.1,56.0,29.74,South,190,0.0,3.0,61,0.00,,CLR,0.00,0.00,VWS V14.01,2013-04-30 06:16:00,
2013-04-30 01:21:00,70.0,56.4,29.74,SSE,164,4.0,7.0,62,0.00,,CLR,0.00,0.00,VWS V14.01,2013-04-30 06:21:00,
2013-04-30 01:26:00,69.8,56.2,29.74,South,181,4.0,5.0,62,0.00,,CLR,0.00,0.00,VWS V14.01,2013-04-30 06:26:00,
2013-04-30 01:31:00,69.6,56.5,29.74,South,190,0.0,0.0,63,0.00,,CLR,0.00,0.00,VWS V14.01,2013-04-30 06:31:00,
2013-04-30 01:36:00,69.4,56.3,29.74,SSW,194,1.0,10.0,63,0.00,,CLR,0.00,0.00,VWS V14.01,2013-04-30 06:36:00,
2013-04-30 01:41:00,69.3,56.6,29.74,SW,227,4.0,12.0,64,0.00,,CLR,0.00,0.00,VWS V14.01,2013-04-30 06:41:00,
2013-04-30 01:46:00,68.9,56.2,29.74,South,183,0.0,0.0,64,0.00,,CLR,0.00,0.00,VWS V14.01,2013-04-30 06:46:00,
2013-04-30 01:51:00,68.8,56.6,29.74,South,184,0.0,4.0,65,0.00,,CLR,0.00,0.00,VWS V14.01,2013-04-30 06:51:00,
2013-04-30 01:56:00,68.6,56.4,29.74,South,180,0.0,4.0,65,0.00,,CLR,0.00,0.00,VWS V14.01,2013-04-30 06:56:00,
2013-04-30 02:01:00,68.4,56.6,29.74,SSW,194,0.0,0.0,66,0.00,,CLR,0.00,0.00,VWS V14.01,2013-04-30 07:01:00,
2013-04-30 02:06:00,68.1,56.3,29.74,SSW,192,0.0,6.0,66,0.00,,CLR,0.00,0.00,VWS V14.01,2013-04-30 07:06:00,
2013-04-30 02:11:00,67.9,56.5,29.74,SSW,196,0.0,2.0,67,0.00,,CLR,0.00,0.00,VWS V14.01,2013-04-30 07:11:00,
2013-04-30 02:16:00,67.8,56.9,29.74,SSW,200,0.0,7.0,68,0.00,,CLR,0.00,0.00,VWS V14.01,2013-04-30 07:16:00,
2013-04-30 02:21:00,67.6,56.7,29.74,South,191,5.0,7.0,68,0.00,,CLR,0.00,0.00,VWS V14.01,2013-04-30 07:21:00,
2013-04-30 02:26:00,67.4,56.9,29.74,South,179,0.0,6.0,69,0.00,,CLR,0.00,0.00,VWS V14.01,2013-04-30 07:26:00,
2013-04-30 02:31:00,67.3,56.8,29.74,South,182,3.0,6.0,69,0.00,,CLR,0.00,0.00,VWS V14.01,2013-04-30 07:31:00,
2013-04-30 02:36:00,67.1,57.0,29.74,SSW,193,3.0,7.0,70,0.00,,CLR,0.00,0.00,VWS V14.01,2013-04-30 07:36:00,
2013-04-30 02:41:00,66.9,56.8,29.74,SSW,195,0.0,9.0,70,0.00,,CLR,0.00,0.00,VWS V14.01,2013-04-30 07:41:00,
2013-04-30 02:46:00,66.8,57.1,29.74,South,178,0.0,0.0,71,0.00,,CLR,0.00,0.00,VWS V14.01,2013-04-30 07:46:00,
2013-04-30 02:51:00,66.8,57.1,29.74,SSW,213,5.0,9.0,71,0.00,,CLR,0.00,0.00,VWS V14.01,2013-04-30 07:51:00,
2013-04-30 02:56:00,66.6,57.3,29.74,South,184,2.0,5.0,72,0.00,,CLR,0.00,0.00,VWS V14.01,2013-04-30 07:56:00,
2013-04-30 03:01:00,66.4,57.1,29.74,South,174,0.0,0.0,72,0.00,,CLR,0.00,0.00,VWS V14.01,2013-04-30 08:01:00,
2013-04-30 03:06:00,66.4,57.1,29.74,South,187,0.0,0.0,72,0.00,,CLR,0.00,0.00,VWS V14.01,2013-04-30 08:06:00,
2013-04-30 03:11:00,66.3,57.4,29.74,South,171,0.0,0.0,73,0.00,,CLR,0.00,0.00,VWS V14.01,2013-04-30 08:11:00,
2013-04-30 03:16:00,66.1,57.2,29.74,South,185,0.0,0.0,73,0.00,,CLR,0.00,0.00,VWS V14.01,2013-04-30 08:16:00,
2013-04-30 03:21:00,66.1,57.2,29.74,South,172,5.0,7.0,73,0.00,,CLR,0.00,0.00,VWS V14.01,2013-04-30 08:21:00,
2013-04-30 03:26:00,65.9,57.0,29.74,South,186,7.0,10.0,73,0.00,,CLR,0.00,0.00,VWS V14.01,2013-04-30 08:26:00,
2013-04-30 03:31:00,65.9,57.0,29.74,SSE,164,5.0,10.0,73,0.00,,CLR,0.00,0.00,VWS V14.01,2013-04-30 08:31:00,
2013-04-30 03:36:00,65.8,56.9,29.74,South,171,7.0,7.0,73,0.00,,CLR,0.00,0.00,VWS V14.01,2013-04-30 08:36:00,
2013-04-30 03:41:00,65.8,56.9,29.74,South,190,5.0,6.0,73,0.00,,CLR,0.00,0.00,VWS V14.01,2013-04-30 08:41:00,
2013-04-30 03:46:00,65.8,56.9,29.75,SSW,206,0.0,5.0,73,0.00,,CLR,0.00,0.00,VWS V14.01,2013-04-30 08:46:00,
2013-04-30 03:51:00,65.6,56.7,29.75,South,182,2.0,4.0,73,0.00,,CLR,0.00,0.00,VWS V14.01,2013-04-30 08:51:00,
2013-04-30 03:56:00,65.6,56.7,29.75,South,174,4.0,6.0,73,0.00,,CLR,0.00,0.00,VWS V14.01,2013-04-30 08:56:00,
2013-04-30 04:01:00,65.6,56.7,29.75,SSW,210,2.0,6.0,73,0.00,,CLR,0.00,0.00,VWS V14.01,2013-04-30 09:01:00,
2013-04-30 04:06:00,65.4,56.5,29.75,South,188,0.0,0.0,73,0.00,,CLR,0.00,0.00,VWS V14.01,2013-04-30 09:06:00,
2013-04-30 04:11:00,65.4,56.9,29.75,South,181,0.0,0.0,74,0.00,,CLR,0.00,0.00,VWS V14.01,2013-04-30 09:11:00,
2013-04-30 04:16:00,65.3,56.8,29.75,South,190,6.0,6.0,74,0.00,,CLR,0.00,0.00,VWS V14.01,2013-04-30 09:16:00,
2013-04-30 04:21:00,65.1,56.6,29.75,South,191,4.0,6.0,74,0.00,,CLR,0.00,0.00,VWS V14.01,2013-04-30 09:21:00,
2013-04-30 04:26:00,64.9,56.4,29.75,South,190,1.0,10.0,74,0.00,,CLR,0.00,0.00,VWS V14.01,2013-04-30 09:26:00,
2013-04-30 04:31:00,64.9,56.8,29.75,South,188,0.0,6.0,75,0.00,,CLR,0.00,0.00,VWS V14.01,2013-04-30 09:31:00,
2013-04-30 04:36:00,64.8,56.7,29.75,South,184,10.0,10.0,75,0.00,,CLR,0.00,0.00,VWS V14.01,2013-04-30 09:36:00,
2013-04-30 04:41:00,64.6,56.5,29.75,South,190,0.0,2.0,75,0.00,,CLR,0.00,0.00,VWS V14.01,2013-04-30 09:41:00,
2013-04-30 04:46:00,64.5,56.4,29.76,South,190,5.0,5.0,75,0.00,,CLR,0.00,0.00,VWS V14.01,2013-04-30 09:46:00,
2013-04-30 04:51:00,64.3,56.6,29.76,South,190,5.0,5.0,76,0.00,,CLR,0.00,0.00,VWS V14.01,2013-04-30 09:51:00,
2013-04-30 04:56:00,64.1,56.4,29.76,South,182,0.0,0.0,76,0.00,,CLR,0.00,0.00,VWS V14.01,2013-04-30 09:56:00,
2013-04-30 05:01:00,64.0,56.3,29.76,South,188,6.0,6.0,76,0.00,,CLR,0.00,0.00,VWS V14.01,2013-04-30 10:01:00,
2013-04-30 05:06:00,63.8,56.5,29.76,South,177,3.0,5.0,77,0.00,,CLR,0.00,0.00,VWS V14.01,2013-04-30 10:06:00,
2013-04-30 05:11:00,63.7,56.4,29.76,South,182,0.0,3.0,77,0.00,,CLR,0.00,0.00,VWS V14.01,2013-04-30 10:11:00,
2013-04-30 05:16:00,63.5,56.2,29.76,SSE,163,0.0,3.0,77,0.00,,CLR,0.00,0.00,VWS V14.01,2013-04-30 10:16:00,
2013-04-30 05:21:00,63.3,56.0,29.76,South,174,4.0,5.0,77,0.00,,CLR,0.00,0.00,VWS V14.01,2013-04-30 10:21:00,
2013-04-30 05:26:00,63.2,55.9,29.76,South,174,0.0,0.0,77,0.00,,CLR,0.00,0.00,VWS V14.01,2013-04-30 10:26:00,
2013-04-30 05:31:00,63.0,56.0,29.77,SSW,198,0.0,0.0,78,0.00,,CLR,0.00,0.00,VWS V14.01,2013-04-30 10:31:00,
2013-04-30 05:36:00,63.0,56.0,29.77,SSW,198,0.0,0.0,78,0.00,,CLR,0.00,0.00,VWS V14.01,2013-04-30 10:36:00,
2013-04-30 05:41:00,62.8,55.8,29.77,SSW,197,0.0,3.0,78,0.00,,CLR,0.00,0.00,VWS V14.01,2013-04-30 10:41:00,
2013-04-30 05:46:00,62.7,55.8,29.77,South,188,0.0,0.0,78,0.00,,CLR,0.00,0.00,VWS V14.01,2013-04-30 10:46:00,
2013-04-30 05:51:00,62.7,55.8,29.77,SSW,192,0.0,0.0,78,0.00,,CLR,0.00,0.00,VWS V14.01,2013-04-30 10:51:00,
2013-04-30 05:56:00,62.5,55.6,29.77,South,186,0.0,2.0,78,0.00,,CLR,0.00,0.00,VWS V14.01,2013-04-30 10:56:00,
2013-04-30 06:01:00,62.5,55.6,29.78,South,181,0.0,0.0,78,0.00,,CLR,0.00,0.00,VWS V14.01,2013-04-30 11:01:00,
2013-04-30 06:06:00,62.4,55.5,29.78,South,181,0.0,0.0,78,0.00,,CLR,0.00,0.00,VWS V14.01,2013-04-30 11:06:00,
2013-04-30 06:11:00,62.2,55.3,29.78,South,180,0.0,0.0,78,0.00,,CLR,0.00,0.00,VWS V14.01,2013-04-30 11:11:00,
2013-04-30 06:16:00,62.2,55.3,29.78,South,180,2.0,4.0,78,0.00,,CLR,0.00,0.00,VWS V14.01,2013-04-30 11:16:00,
2013-04-30 06:21:00,62.0,55.1,29.78,South,180,0.0,0.0,78,0.00,,CLR,0.00,0.00,VWS V14.01,2013-04-30 11:21:00,
2013-04-30 06:26:00,61.9,55.0,29.78,South,179,0.0,0.0,78,0.00,,CLR,0.00,0.00,VWS V14.01,2013-04-30 11:26:00,
2013-04-30 06:31:00,61.9,55.0,29.78,South,179,0.0,0.0,78,0.00,,CLR,0.00,0.00,VWS V14.01,2013-04-30 11:31:00,
2013-04-30 06:36:00,61.7,54.8,29.78,South,178,1.0,4.0,78,0.00,,CLR,0.00,8.05,VWS V14.01,2013-04-30 11:36:00,
2013-04-30 06:41:00,61.7,54.8,29.78,South,177,0.0,2.0,78,0.00,,CLR,0.00,12.65,VWS V14.01,2013-04-30 11:41:00,
2013-04-30 06:46:00,61.7,54.8,29.79,South,180,0.0,4.0,78,0.00,,CLR,0.00,18.40,VWS V14.01,2013-04-30 11:46:00,
2013-04-30 06:51:00,61.7,54.8,29.79,South,180,0.0,0.0,78,0.00,,CLR,0.00,21.85,VWS V14.01,2013-04-30 11:51:00,
2013-04-30 06:56:00,61.7,54.8,29.79,South,179,0.0,0.0,78,0.00,,CLR,0.00,29.90,VWS V14.01,2013-04-30 11:56:00,
2013-04-30 07:01:00,61.7,54.8,29.80,South,178,0.0,0.0,78,0.00,,CLR,0.00,37.95,VWS V14.01,2013-04-30 12:01:00,
2013-04-30 07:06:00,61.7,54.8,29.80,SSE,160,0.0,0.0,78,0.00,,CLR,0.00,54.05,VWS V14.01,2013-04-30 12:06:00,
2013-04-30 07:11:00,61.9,55.0,29.80,South,174,5.0,5.0,78,0.00,,CLR,0.00,54.05,VWS V14.01,2013-04-30 12:11:00,
2013-04-30 07:16:00,62.0,54.7,29.79,South,172,2.0,5.0,77,0.00,,CLR,0.00,80.50,VWS V14.01,2013-04-30 12:16:00,
2013-04-30 07:21:00,62.2,54.9,29.79,South,171,0.0,0.0,77,0.00,,CLR,0.00,112.70,VWS V14.01,2013-04-30 12:21:00,
2013-04-30 07:26:00,62.8,55.1,29.79,South,169,0.0,0.0,76,0.00,,CLR,0.00,127.65,VWS V14.01,2013-04-30 12:26:00,
2013-04-30 07:31:00,63.3,55.2,29.80,South,170,0.0,0.0,75,0.00,,CLR,0.00,143.75,VWS V14.01,2013-04-30 12:31:00,
2013-04-30 07:36:00,63.8,55.4,29.80,South,171,0.0,0.0,74,0.00,,CLR,0.00,162.15,VWS V14.01,2013-04-30 12:36:00,
2013-04-30 07:41:00,64.1,55.3,29.80,South,186,3.0,6.0,73,0.00,,CLR,0.00,179.40,VWS V14.01,2013-04-30 12:41:00,
2013-04-30 07:46:00,64.6,55.8,29.80,South,177,0.0,0.0,73,0.00,,CLR,0.00,197.80,VWS V14.01,2013-04-30 12:46:00,
2013-04-30 07:51:00,65.1,55.9,29.80,South,179,0.0,0.0,72,0.00,,CLR,0.00,218.50,VWS V14.01,2013-04-30 12:51:00,
2013-04-30 07:56:00,65.4,55.4,29.80,SSW,196,9.0,10.0,70,0.00,,CLR,0.00,238.05,VWS V14.01,2013-04-30 12:56:00,
2013-04-30 08:01:00,65.8,55.8,29.80,South,175,0.0,0.0,70,0.00,,CLR,0.00,253.00,VWS V14.01,2013-04-30 13:01:00,
2013-04-30 08:06:00,66.1,56.0,29.80,SSW,211,0.0,7.0,70,0.00,,CLR,0.00,272.55,VWS V14.01,2013-04-30 13:06:00,
2013-04-30 08:11:00,66.6,56.1,29.80,South,185,0.0,0.0,69,0.00,,CLR,0.00,290.95,VWS V14.01,2013-04-30 13:11:00,
2013-04-30 08:16:00,67.1,56.6,29.80,SSE,164,4.0,5.0,69,0.00,,CLR,0.00,311.65,VWS V14.01,2013-04-30 13:16:00,
2013-04-30 08:20:00,67.4,56.5,29.80,SSE,158,3.0,4.0,68,0.00,,CLR,0.00,331.20,VWS V14.01,2013-04-30 13:20:00,
2013-04-30 08:25:00,67.8,56.9,29.80,SSW,207,2.0,4.0,68,0.00,,CLR,0.00,351.90,VWS V14.01,2013-04-30 13:25:00,
2013-04-30 08:30:00,68.3,56.9,29.80,South,173,0.0,0.0,67,0.00,,CLR,0.00,368.00,VWS V14.01,2013-04-30 13:30:00,
2013-04-30 08:36:00,68.6,56.8,29.80,SW,214,2.0,4.0,66,0.00,,CLR,0.00,388.70,VWS V14.01,2013-04-30 13:36:00,
2013-04-30 08:40:00,69.1,56.8,29.80,SW,219,5.0,5.0,65,0.00,,CLR,0.00,408.25,VWS V14.01,2013-04-30 13:40:00,
2013-04-30 08:45:00,69.3,57.0,29.80,SSW,202,0.0,0.0,65,0.00,,CLR,0.00,426.65,VWS V14.01,2013-04-30 13:45:00,
2013-04-30 08:50:00,70.0,57.3,29.80,South,180,11.0,14.0,64,0.00,,CLR,0.00,446.20,VWS V14.01,2013-04-30 13:50:00,
2013-04-30 08:55:00,70.0,57.3,29.80,SSW,201,7.0,9.0,64,0.00,,CLR,0.00,466.90,VWS V14.01,2013-04-30 13:55:00,
2013-04-30 09:00:00,70.3,57.6,29.80,SSW,193,17.0,17.0,64,0.00,,CLR,0.00,485.30,VWS V14.01,2013-04-30 14:00:00,
2013-04-30 09:05:00,70.5,57.8,29.80,South,191,10.0,11.0,64,0.00,,CLR,0.00,501.40,VWS V14.01,2013-04-30 14:05:00,
2013-04-30 09:10:00,70.6,57.8,29.80,SSW,209,6.0,6.0,64,0.00,,CLR,0.00,522.10,VWS V14.01,2013-04-30 14:10:00,
2013-04-30 09:15:00,70.8,58.0,29.80,SSW,208,4.0,6.0,64,0.00,,CLR,0.00,539.35,VWS V14.01,2013-04-30 14:15:00,
2013-04-30 09:20:00,71.5,58.7,29.80,SW,233,5.0,5.0,64,0.00,,CLR,0.00,560.05,VWS V14.01,2013-04-30 14:20:00,
2013-04-30 09:25:00,71.7,58.9,29.80,SSE,165,7.0,12.0,64,0.00,,CLR,0.00,576.15,VWS V14.01,2013-04-30 14:25:00,
2013-04-30 09:30:00,72.0,59.2,29.80,SSE,165,7.0,10.0,64,0.00,,CLR,0.00,594.55,VWS V14.01,2013-04-30 14:30:00,
2013-04-30 09:35:00,72.0,58.7,29.80,SSW,209,6.0,6.0,63,0.00,,CLR,0.00,608.35,VWS V14.01,2013-04-30 14:35:00,
2013-04-30 09:40:00,72.2,58.5,29.80,South,188,5.0,5.0,62,0.00,,CLR,0.00,626.75,VWS V14.01,2013-04-30 14:40:00,
2013-04-30 09:45:00,73.6,59.8,29.80,SSE,166,3.0,3.0,62,0.00,,CLR,0.00,645.15,VWS V14.01,2013-04-30 14:45:00,
2013-04-30 09:50:00,73.9,59.2,29.80,South,175,7.0,7.0,60,0.00,,CLR,0.00,663.55,VWS V14.01,2013-04-30 14:50:00,
2013-04-30 09:55:00,74.3,59.5,29.80,SSE,168,0.0,0.0,60,0.00,,CLR,0.00,680.80,VWS V14.01,2013-04-30 14:55:00,
2013-04-30 10:00:00,74.5,59.2,29.80,SSW,212,11.0,11.0,59,0.00,,CLR,0.00,693.45,VWS V14.01,2013-04-30 15:00:00,
2013-04-30 10:05:00,74.3,59.5,29.80,South,184,5.0,11.0,60,0.00,,CLR,0.00,714.15,VWS V14.01,2013-04-30 15:05:00,
2013-04-30 10:10:00,74.6,59.3,29.80,South,181,0.0,0.0,59,0.00,,CLR,0.00,725.65,VWS V14.01,2013-04-30 15:10:00,
2013-04-30 10:15:00,74.8,59.0,29.79,SSW,193,3.0,3.0,58,0.00,,CLR,0.00,741.75,VWS V14.01,2013-04-30 15:15:00,
2013-04-30 10:20:00,75.2,58.9,29.79,SSW,196,17.0,17.0,57,0.00,,CLR,0.00,757.85,VWS V14.01,2013-04-30 15:20:00,
2013-04-30 10:25:00,75.7,59.4,29.79,SSE,147,9.0,17.0,57,0.00,,CLR,0.00,771.65,VWS V14.01,2013-04-30 15:25:00,
2013-04-30 10:30:00,75.5,58.7,29.78,SSW,206,3.0,9.0,56,0.00,,CLR,0.00,786.60,VWS V14.01,2013-04-30 15:30:00,
2013-04-30 10:35:00,76.2,59.9,29.78,South,172,7.0,13.0,57,0.00,,CLR,0.00,798.10,VWS V14.01,2013-04-30 15:35:00,
2013-04-30 10:40:00,76.4,59.6,29.78,South,185,5.0,7.0,56,0.00,,CLR,0.00,814.20,VWS V14.01,2013-04-30 15:40:00,
2013-04-30 10:45:00,76.8,59.4,29.78,South,169,7.0,7.0,55,0.00,,CLR,0.00,826.85,VWS V14.01,2013-04-30 15:45:00,
2013-04-30 10:50:00,77.5,59.0,29.78,South,172,10.0,16.0,53,0.00,,CLR,0.00,838.35,VWS V14.01,2013-04-30 15:50:00,
2013-04-30 10:55:00,77.5,58.5,29.78,South,184,0.0,2.0,52,0.00,,CLR,0.00,851.00,VWS V14.01,2013-04-30 15:55:00,
2013-04-30 11:00:00,77.9,58.9,29.78,SSE,153,2.0,2.0,52,0.00,,CLR,0.00,864.80,VWS V14.01,2013-04-30 16:00:00,
2013-04-30 11:05:00,78.1,58.5,29.78,SSW,194,10.0,16.0,51,0.00,,CLR,0.00,880.90,VWS V14.01,2013-04-30 16:05:00,
2013-04-30 11:10:00,78.4,57.7,29.78,SW,219,7.0,10.0,49,0.00,,CLR,0.00,891.25,VWS V14.01,2013-04-30 16:10:00,
2013-04-30 11:15:00,78.4,58.2,29.78,SSE,148,15.0,15.0,50,0.00,,CLR,0.00,903.90,VWS V14.01,2013-04-30 16:15:00,
2013-04-30 11:20:00,78.4,57.1,29.78,South,176,20.0,20.0,48,0.00,,CLR,0.00,915.40,VWS V14.01,2013-04-30 16:20:00,
2013-04-30 11:25:00,78.4,57.1,29.78,South,182,12.0,22.0,48,0.00,,CLR,0.00,925.75,VWS V14.01,2013-04-30 16:25:00,
2013-04-30 11:30:00,78.8,56.3,29.78,SSW,212,7.0,9.0,46,0.00,,CLR,0.00,930.35,VWS V14.01,2013-04-30 16:30:00,
2013-04-30 11:35:00,78.6,56.1,29.78,South,188,3.0,23.0,46,0.00,,CLR,0.00,941.85,VWS V14.01,2013-04-30 16:35:00,
2013-04-30 11:40:00,80.1,57.5,29.78,South,188,2.0,6.0,46,0.00,,CLR,0.00,947.60,VWS V14.01,2013-04-30 16:40:00,
2013-04-30 11:45:00,80.5,56.6,29.78,SE,132,1.0,24.0,44,0.00,,CLR,0.00,963.70,VWS V14.01,2013-04-30 16:45:00,
2013-04-30 11:50:00,80.7,55.5,29.78,South,178,7.0,19.0,42,0.00,,CLR,0.00,968.30,VWS V14.01,2013-04-30 16:50:00,
2013-04-30 11:55:00,80.5,54.7,29.78,SSW,194,11.0,18.0,41,0.00,,CLR,0.00,982.10,VWS V14.01,2013-04-30 16:55:00,
2013-04-30 12:00:00,80.5,54.0,29.77,South,176,14.0,24.0,40,0.00,,CLR,0.00,982.10,VWS V14.01,2013-04-30 17:00:00,
2013-04-30 12:05:00,80.3,54.5,29.77,South,186,11.0,20.0,41,0.00,,CLR,0.00,994.75,VWS V14.01,2013-04-30 17:05:00,
2013-04-30 12:10:00,80.1,53.6,29.77,South,171,9.0,24.0,40,0.00,,CLR,0.00,998.20,VWS V14.01,2013-04-30 17:10:00,
2013-04-30 12:15:00,80.5,54.7,29.77,SSW,194,5.0,23.0,41,0.00,,CLR,0.00,1005.10,VWS V14.01,2013-04-30 17:15:00,
2013-04-30 12:20:00,80.5,56.0,29.77,SW,219,5.0,23.0,43,0.00,,CLR,0.00,1005.10,VWS V14.01,2013-04-30 17:20:00,
2013-04-30 12:25:00,80.5,56.0,29.77,South,173,0.0,17.0,43,0.00,,CLR,0.00,1008.55,VWS V14.01,2013-04-30 17:25:00,
2013-04-30 12:30:00,80.9,55.0,29.76,South,173,11.0,15.0,41,0.00,,CLR,0.00,1018.90,VWS V14.01,2013-04-30 17:30:00,
2013-04-30 12:35:00,81.5,55.5,29.76,South,182,3.0,18.0,41,0.00,,CLR,0.00,1022.35,VWS V14.01,2013-04-30 17:35:00,
2013-04-30 12:40:00,81.3,54.7,29.76,SSE,154,15.0,21.0,40,0.00,,CLR,0.00,1026.95,VWS V14.01,2013-04-30 17:40:00,
2013-04-30 12:45:00,81.3,54.7,29.76,South,174,0.0,16.0,40,0.00,,CLR,0.00,1032.70,VWS V14.01,2013-04-30 17:45:00,
2013-04-30 12:50:00,81.3,54.7,29.76,SSW,194,0.0,22.0,40,0.00,,CLR,0.00,1030.40,VWS V14.01,2013-04-30 17:50:00,
2013-04-30 12:55:00,82.1,54.0,29.76,South,172,12.0,17.0,38,0.00,,CLR,0.00,1043.05,VWS V14.01,2013-04-30 17:55:00,
2013-04-30 13:00:00,82.3,54.9,29.75,SSE,150,6.0,21.0,39,0.00,,CLR,0.00,1039.60,VWS V14.01,2013-04-30 18:00:00,
2013-04-30 13:05:00,82.3,51.9,29.75,SSE,162,13.0,19.0,35,0.00,,CLR,0.00,1040.75,VWS V14.01,2013-04-30 18:05:00,
2013-04-30 13:10:00,82.3,54.2,29.75,SSW,198,14.0,24.0,38,0.00,,CLR,0.00,1045.35,VWS V14.01,2013-04-30 18:10:00,
2013-04-30 13:15:00,82.5,54.4,29.75,South,178,12.0,16.0,38,0.00,,CLR,0.00,1040.75,VWS V14.01,2013-04-30 18:15:00,
2013-04-30 13:20:00,82.8,52.4,29.75,South,190,14.0,16.0,35,0.00,,CLR,0.00,1035.00,VWS V14.01,2013-04-30 18:20:00,
2013-04-30 13:25:00,82.6,56.5,29.75,South,186,6.0,20.0,41,0.00,,CLR,0.00,1029.25,VWS V14.01,2013-04-30 18:25:00,
2013-04-30 13:30:00,82.5,56.5,29.75,South,171,11.0,17.0,41,0.00,,CLR,0.00,1030.40,VWS V14.01,2013-04-30 18:30:00,
2013-04-30 13:35:00,82.6,57.2,29.75,SSE,150,0.0,13.0,42,0.00,,CLR,0.00,1037.30,VWS V14.01,2013-04-30 18:35:00,
2013-04-30 13:40:00,82.3,55.6,29.75,SE,142,1.0,19.0,40,0.00,,CLR,0.00,1026.95,VWS V14.01,2013-04-30 18:40:00,
2013-04-30 13:45:00,82.5,55.1,29.75,South,181,5.0,19.0,39,0.00,,CLR,0.00,1024.65,VWS V14.01,2013-04-30 18:45:00,
2013-04-30 13:50:00,82.1,53.3,29.75,SE,131,6.0,25.0,37,0.00,,CLR,0.00,1022.35,VWS V14.01,2013-04-30 18:50:00,
2013-04-30 13:55:00,82.5,53.6,29.75,South,188,5.0,22.0,37,0.00,,CLR,0.00,1024.65,VWS V14.01,2013-04-30 18:55:00,
2013-04-30 14:00:00,82.6,53.7,29.75,SSE,163,17.0,24.0,37,0.00,,CLR,0.00,1014.30,VWS V14.01,2013-04-30 19:00:00,
2013-04-30 14:05:00,82.6,53.0,29.75,SSE,161,15.0,18.0,36,0.00,,CLR,0.00,1014.30,VWS V14.01,2013-04-30 19:05:00,
2013-04-30 14:10:00,83.2,53.5,29.75,South,175,3.0,18.0,36,0.00,,CLR,0.00,1010.85,VWS V14.01,2013-04-30 19:10:00,
2013-04-30 14:15:00,83.4,52.9,29.75,SSE,148,4.0,17.0,35,0.00,,CLR,0.00,1006.25,VWS V14.01,2013-04-30 19:15:00,
2013-04-30 14:20:00,83.2,53.5,29.75,SSE,161,2.0,21.0,36,0.00,,CLR,0.00,1002.80,VWS V14.01,2013-04-30 19:20:00,
2013-04-30 14:25:00,83.8,52.5,29.75,South,169,14.0,21.0,34,0.00,,CLR,0.00,994.75,VWS V14.01,2013-04-30 19:25:00,
2013-04-30 14:30:00,83.6,53.1,29.75,SSE,161,10.0,19.0,35,0.00,,CLR,0.00,989.00,VWS V14.01,2013-04-30 19:30:00,
2013-04-30 14:35:00,83.4,52.9,29.75,South,173,10.0,19.0,35,0.00,,CLR,0.00,980.95,VWS V14.01,2013-04-30 19:35:00,
2013-04-30 14:40:00,83.6,53.8,29.75,South,171,8.0,21.0,36,0.00,,CLR,0.00,976.35,VWS V14.01,2013-04-30 19:40:00,
2013-04-30 14:45:00,83.6,50.7,29.75,SSE,163,11.0,16.0,32,0.00,,CLR,0.00,970.60,VWS V14.01,2013-04-30 19:45:00,
2013-04-30 14:50:00,83.2,51.1,29.75,ESE,102,5.0,21.0,33,0.00,,CLR,0.00,962.55,VWS V14.01,2013-04-30 19:50:00,
2013-04-30 14:55:00,83.2,50.3,29.75,SSE,154,7.0,20.0,32,0.00,,CLR,0.00,954.50,VWS V14.01,2013-04-30 19:55:00,
2013-04-30 15:00:00,83.6,51.5,29.74,SSW,201,7.0,18.0,33,0.00,,CLR,0.00,941.85,VWS V14.01,2013-04-30 20:00:00,
2013-04-30 15:05:00,83.8,50.8,29.74,South,182,7.0,17.0,32,0.00,,CLR,0.00,936.10,VWS V14.01,2013-04-30 20:05:00,
2013-04-30 15:10:00,83.8,51.7,29.74,South,184,4.0,18.0,33,0.00,,CLR,0.00,928.05,VWS V14.01,2013-04-30 20:10:00,
2013-04-30 15:15:00,84.0,51.8,29.74,SSE,163,1.0,17.0,33,0.00,,CLR,0.00,911.95,VWS V14.01,2013-04-30 20:15:00,
2013-04-30 15:20:00,84.4,51.3,29.74,South,169,1.0,13.0,32,0.00,,CLR,0.00,899.30,VWS V14.01,2013-04-30 20:20:00,
2013-04-30 15:25:00,84.0,51.8,29.74,South,175,10.0,19.0,33,0.00,,CLR,0.00,891.25,VWS V14.01,2013-04-30 20:25:00,
2013-04-30 15:30:00,84.0,51.8,29.74,SSE,168,5.0,18.0,33,0.00,,CLR,0.00,880.90,VWS V14.01,2013-04-30 20:30:00,
2013-04-30 15:35:00,83.8,50.8,29.74,SSW,211,10.0,26.0,32,0.00,,CLR,0.00,869.40,VWS V14.01,2013-04-30 20:35:00,
2013-04-30 15:40:00,84.0,51.0,29.74,SSW,205,19.0,23.0,32,0.00,,CLR,0.00,856.75,VWS V14.01,2013-04-30 20:40:00,
2013-04-30 15:45:00,83.8,50.8,29.74,SSE,161,2.0,19.0,32,0.00,,CLR,0.00,848.70,VWS V14.01,2013-04-30 20:45:00,
2013-04-30 15:50:00,84.2,52.0,29.74,SSW,195,2.0,15.0,33,0.00,,CLR,0.00,837.20,VWS V14.01,2013-04-30 20:50:00,
2013-04-30 15:55:00,84.2,51.2,29.74,South,170,13.0,15.0,32,0.00,,CLR,0.00,822.25,VWS V14.01,2013-04-30 20:55:00,
2013-04-30 16:00:00,83.8,50.0,29.73,South,190,14.0,23.0,31,0.00,,CLR,0.00,800.40,VWS V14.01,2013-04-30 21:00:00,
2013-04-30 16:05:00,83.6,49.8,29.73,SSE,147,4.0,20.0,31,0.00,,CLR,0.00,792.35,VWS V14.01,2013-04-30 21:05:00,
2013-04-30 16:10:00,83.6,50.7,29.73,SSE,166,19.0,19.0,32,0.00,,CLR,0.00,784.30,VWS V14.01,2013-04-30 21:10:00,
2013-04-30 16:15:00,83.8,50.0,29.73,South,173,2.0,23.0,31,0.00,,CLR,0.00,760.15,VWS V14.01,2013-04-30 21:15:00,
2013-04-30 16:20:00,83.8,50.0,29.73,SSE,157,10.0,16.0,31,0.00,,CLR,0.00,746.35,VWS V14.01,2013-04-30 21:20:00,
2013-04-30 16:25:00,83.6,48.9,29.73,South,185,2.0,21.0,30,0.00,,CLR,0.00,725.65,VWS V14.01,2013-04-30 21:25:00,
2013-04-30 16:30:00,83.6,48.9,29.73,South,173,0.0,17.0,30,0.00,,CLR,0.00,719.90,VWS V14.01,2013-04-30 21:30:00,
2013-04-30 16:35:00,83.6,48.9,29.73,SSW,204,14.0,14.0,30,0.00,,CLR,0.00,696.90,VWS V14.01,2013-04-30 21:35:00,
2013-04-30 16:40:00,83.2,48.6,29.73,South,178,9.0,20.0,30,0.00,,CLR,0.00,680.80,VWS V14.01,2013-04-30 21:40:00,
2013-04-30 16:45:00,83.2,48.6,29.73,SE,136,1.0,19.0,30,0.00,,CLR,0.00,667.00,VWS V14.01,2013-04-30 21:45:00,
2013-04-30 16:50:00,83.2,48.6,29.73,South,175,0.0,17.0,30,0.00,,CLR,0.00,655.50,VWS V14.01,2013-04-30 21:50:00,
2013-04-30 16:55:00,83.2,50.3,29.73,SE,125,2.0,11.0,32,0.00,,CLR,0.00,604.90,VWS V14.01,2013-04-30 21:55:00,
2013-04-30 17:00:00,83.2,50.3,29.72,South,188,17.0,17.0,32,0.00,,CLR,0.00,557.75,VWS V14.01,2013-04-30 22:00:00,
2013-04-30 17:05:00,83.2,50.3,29.72,South,191,6.0,13.0,32,0.00,,CLR,0.00,600.30,VWS V14.01,2013-04-30 22:05:00,
2013-04-30 17:10:00,83.0,48.4,29.72,SSE,148,4.0,21.0,30,0.00,,CLR,0.00,588.80,VWS V14.01,2013-04-30 22:10:00,
2013-04-30 17:15:00,83.0,48.4,29.72,South,180,18.0,18.0,30,0.00,,CLR,0.00,557.75,VWS V14.01,2013-04-30 22:15:00,
2013-04-30 17:20:00,82.8,48.2,29.72,SSE,150,13.0,18.0,30,0.00,,CLR,0.00,531.30,VWS V14.01,2013-04-30 22:20:00,
2013-04-30 17:25:00,82.6,48.9,29.72,SSE,163,10.0,19.0,31,0.00,,CLR,0.00,517.50,VWS V14.01,2013-04-30 22:25:00,
2013-04-30 17:30:00,82.6,49.8,29.72,South,186,13.0,16.0,32,0.00,,CLR,0.00,495.65,VWS V14.01,2013-04-30 22:30:00,
2013-04-30 17:35:00,82.6,49.8,29.72,South,190,12.0,13.0,32,0.00,,CLR,0.00,483.00,VWS V14.01,2013-04-30 22:35:00,
2013-04-30 17:40:00,82.5,49.7,29.72,SSE,148,6.0,15.0,32,0.00,,CLR,0.00,461.15,VWS V14.01,2013-04-30 22:40:00,
2013-04-30 17:45:00,82.5,49.7,29.72,SE,139,11.0,21.0,32,0.00,,CLR,0.00,442.75,VWS V14.01,2013-04-30 22:45:00,
2013-04-30 17:50:00,82.3,50.3,29.72,South,174,17.0,19.0,33,0.00,,CLR,0.00,420.90,VWS V14.01,2013-04-30 22:50:00,
2013-04-30 17:55:00,82.1,50.2,29.72,SSE,165,9.0,14.0,33,0.00,,CLR,0.00,381.80,VWS V14.01,2013-04-30 22:55:00,
2013-04-30 18:00:00,82.1,49.3,29.72,South,187,6.0,18.0,32,0.00,,CLR,0.00,315.10,VWS V14.01,2013-04-30 23:00:00,
2013-04-30 18:05:00,82.1,50.2,29.72,SSW,202,4.0,18.0,33,0.00,,CLR,0.00,125.35,VWS V14.01,2013-04-30 23:05:00,
2013-04-30 18:10:00,81.9,50.8,29.72,SSW,192,1.0,17.0,34,0.00,,CLR,0.00,165.60,VWS V14.01,2013-04-30 23:10:00,
2013-04-30 18:15:00,81.9,50.0,29.72,SSE,160,15.0,15.0,33,0.00,,CLR,0.00,96.60,VWS V14.01,2013-04-30 23:15:00,
2013-04-30 18:20:00,81.7,49.8,29.72,South,177,5.0,19.0,33,0.00,,CLR,0.00,103.50,VWS V14.01,2013-04-30 23:20:00,
2013-04-30 18:25:00,81.5,49.7,29.72,South,172,4.0,17.0,33,0.00,,CLR,0.00,79.35,VWS V14.01,2013-04-30 23:25:00,
2013-04-30 18:30:00,81.5,51.2,29.72,SSE,155,9.0,16.0,35,0.00,,CLR,0.00,69.00,VWS V14.01,2013-04-30 23:30:00,
2013-04-30 18:35:00,81.3,51.8,29.72,South,181,9.0,17.0,36,0.00,,CLR,0.00,85.10,VWS V14.01,2013-04-30 23:35:00,
2013-04-30 18:40:00,81.3,51.8,29.72,South,178,7.0,18.0,36,0.00,,CLR,0.00,58.65,VWS V14.01,2013-04-30 23:40:00,
2013-04-30 18:45:00,80.9,51.5,29.72,SSE,155,0.0,21.0,36,0.00,,CLR,0.00,79.35,VWS V14.01,2013-04-30 23:45:00,
2013-04-30 18:50:00,80.7,51.3,29.72,South,180,9.0,21.0,36,0.00,,CLR,0.00,64.40,VWS V14.01,2013-04-30 23:50:00,
2013-04-30 18:55:00,80.7,52.0,29.72,SSE,155,13.0,20.0,37,0.00,,CLR,0.00,69.00,VWS V14.01,2013-04-30 23:55:00,
2013-04-30 19:00:00,80.5,52.6,29.72,South,175,6.0,16.0,38,0.00,,CLR,0.00,46.00,VWS V14.01,2013-05-01 00:00:00,
2013-04-30 19:05:00,80.3,52.4,29.72,South,169,11.0,17.0,38,0.00,,CLR,0.00,104.65,VWS V14.01,2013-05-01 00:05:00,
2013-04-30 19:10:00,80.1,52.2,29.72,South,174,12.0,17.0,38,0.00,,CLR,0.00,58.65,VWS V14.01,2013-05-01 00:10:00,
2013-04-30 19:15:00,79.9,52.8,29.73,SE,144,2.0,14.0,39,0.00,,CLR,0.00,74.75,VWS V14.01,2013-05-01 00:15:00,
2013-04-30 19:20:00,79.9,53.5,29.73,SSE,158,5.0,12.0,40,0.00,,CLR,0.00,36.80,VWS V14.01,2013-05-01 00:20:00,
2013-04-30 19:25:00,79.6,53.2,29.73,SSW,205,0.0,12.0,40,0.00,,CLR,0.00,32.20,VWS V14.01,2013-05-01 00:25:00,
2013-04-30 19:30:00,79.6,53.2,29.74,SSW,195,3.0,12.0,40,0.00,,CLR,0.00,29.90,VWS V14.01,2013-05-01 00:30:00,
2013-04-30 19:35:00,79.4,53.7,29.74,South,189,0.0,0.0,41,0.00,,CLR,0.00,28.75,VWS V14.01,2013-05-01 00:35:00,
2013-04-30 19:40:00,79.2,54.2,29.74,South,171,0.0,9.0,42,0.00,,CLR,0.00,24.15,VWS V14.01,2013-05-01 00:40:00,
2013-04-30 19:45:00,79.0,53.3,29.74,SSE,167,0.0,11.0,41,0.00,,CLR,0.00,20.70,VWS V14.01,2013-05-01 00:45:00,
2013-04-30 19:50:00,78.8,53.8,29.74,SSE,159,3.0,6.0,42,0.00,,CLR,0.00,16.10,VWS V14.01,2013-05-01 00:50:00,
2013-04-30 19:55:00,78.4,54.1,29.74,South,175,0.0,2.0,43,0.00,,CLR,0.00,12.65,VWS V14.01,2013-05-01 00:55:00,
2013-04-30 20:00:00,78.3,54.0,29.74,South,172,0.0,0.0,43,0.00,,CLR,0.00,10.35,VWS V14.01,2013-05-01 01:00:00,
2013-04-30 20:05:00,78.1,54.4,29.74,South,173,0.0,0.0,44,0.00,,CLR,0.00,5.75,VWS V14.01,2013-05-01 01:05:00,
2013-04-30 20:10:00,77.9,54.3,29.74,South,169,0.0,6.0,44,0.00,,CLR,0.00,0.00,VWS V14.01,2013-05-01 01:10:00,
2013-04-30 20:15:00,77.5,53.9,29.74,SSE,161,0.0,2.0,44,0.00,,CLR,0.00,0.00,VWS V14.01,2013-05-01 01:15:00,
2013-04-30 20:20:00,77.3,54.3,29.74,SSE,163,0.0,0.0,45,0.00,,CLR,0.00,0.00,VWS V14.01,2013-05-01 01:20:00,
2013-04-30 20:25:00,77.1,54.2,29.74,SSE,161,0.0,2.0,45,0.00,,CLR,0.00,0.00,VWS V14.01,2013-05-01 01:25:00,
2013-04-30 20:30:00,77.0,54.1,29.74,SSE,161,0.0,0.0,45,0.00,,CLR,0.00,0.00,VWS V14.01,2013-05-01 01:30:00,
2013-04-30 20:35:00,76.6,54.3,29.74,SSE,160,0.0,0.0,46,0.00,,CLR,0.00,0.00,VWS V14.01,2013-05-01 01:35:00,
2013-04-30 20:40:00,76.4,54.7,29.74,SSE,160,0.0,0.0,47,0.00,,CLR,0.00,0.00,VWS V14.01,2013-05-01 01:40:00,
2013-04-30 20:45:00,76.1,55.0,29.75,SSE,160,0.0,0.0,48,0.00,,CLR,0.00,0.00,VWS V14.01,2013-05-01 01:45:00,
2013-04-30 20:50:00,75.9,54.8,29.75,SSE,160,0.0,0.0,48,0.00,,CLR,0.00,0.00,VWS V14.01,2013-05-01 01:50:00,
2013-04-30 20:55:00,75.7,54.6,29.75,SSE,160,0.0,0.0,48,0.00,,CLR,0.00,0.00,VWS V14.01,2013-05-01 01:55:00,
2013-04-30 21:00:00,75.3,54.8,29.75,SSE,160,0.0,0.0,49,0.00,,CLR,0.00,0.00,VWS V14.01,2013-05-01 02:00:00,
2013-04-30 21:05:00,75.2,54.8,29.75,SSE,163,0.0,2.0,49,0.00,,CLR,0.00,0.00,VWS V14.01,2013-05-01 02:05:00,
2013-04-30 21:10:00,75.0,55.1,29.75,SSE,167,0.0,0.0,50,0.00,,CLR,0.00,0.00,VWS V14.01,2013-05-01 02:10:00,
2013-04-30 21:15:00,74.6,54.8,29.75,SSE,166,0.0,2.0,50,0.00,,CLR,0.00,0.00,VWS V14.01,2013-05-01 02:15:00,
2013-04-30 21:20:00,74.5,55.2,29.75,SSE,164,0.0,0.0,51,0.00,,CLR,0.00,0.00,VWS V14.01,2013-05-01 02:20:00,
2013-04-30 21:25:00,74.3,55.6,29.75,SSE,164,0.0,0.0,52,0.00,,CLR,0.00,0.00,VWS V14.01,2013-05-01 02:25:00,
2013-04-30 21:30:00,74.1,55.4,29.76,SSE,164,0.0,0.0,52,0.00,,CLR,0.00,0.00,VWS V14.01,2013-05-01 02:30:00,
2013-04-30 21:35:00,73.9,55.7,29.76,SSE,164,0.0,0.0,53,0.00,,CLR,0.00,0.00,VWS V14.01,2013-05-01 02:35:00,
2013-04-30 21:40:00,73.6,55.4,29.76,SSE,164,0.0,0.0,53,0.00,,CLR,0.00,0.00,VWS V14.01,2013-05-01 02:40:00,
2013-04-30 21:45:00,73.4,55.8,29.77,SSE,164,0.0,1.0,54,0.00,,CLR,0.00,0.00,VWS V14.01,2013-05-01 02:45:00,
2013-04-30 21:50:00,73.1,56.0,29.77,SSE,163,0.0,0.0,55,0.00,,CLR,0.00,0.00,VWS V14.01,2013-05-01 02:50:00,
2013-04-30 21:55:00,72.9,55.8,29.77,SSE,163,0.0,0.0,55,0.00,,CLR,0.00,0.00,VWS V14.01,2013-05-01 02:55:00,
2013-04-30 22:00:00,72.5,55.9,29.77,SSE,163,0.0,3.0,56,0.00,,CLR,0.00,0.00,VWS V14.01,2013-05-01 03:00:00,
2013-04-30 22:05:00,72.4,55.8,29.77,SSE,162,0.0,0.0,56,0.00,,CLR,0.00,0.00,VWS V14.01,2013-05-01 03:05:00,
2013-04-30 22:10:00,72.2,55.7,29.77,SSE,162,0.0,0.0,56,0.00,,CLR,0.00,0.00,VWS V14.01,2013-05-01 03:10:00,
2013-04-30 22:15:00,72.0,56.0,29.78,SSE,162,0.0,0.0,57,0.00,,CLR,0.00,0.00,VWS V14.01,2013-05-01 03:15:00,
2013-04-30 22:20:00,71.8,55.8,29.78,SSE,162,0.0,0.0,57,0.00,,CLR,0.00,0.00,VWS V14.01,2013-05-01 03:20:00,
2013-04-30 22:25:00,71.7,55.7,29.78,SSE,165,0.0,6.0,57,0.00,,CLR,0.00,0.00,VWS V14.01,2013-05-01 03:25:00,
2013-04-30 22:30:00,71.5,56.0,29.78,SSE,163,0.0,0.0,58,0.00,,CLR,0.00,0.00,VWS V14.01,2013-05-01 03:30:00,
2013-04-30 22:35:00,71.3,55.8,29.78,SSE,163,0.0,2.0,58,0.00,,CLR,0.00,0.00,VWS V14.01,2013-05-01 03:35:00,
2013-04-30 22:40:00,71.2,55.7,29.78,SSE,159,0.0,5.0,58,0.00,,CLR,0.00,0.00,VWS V14.01,2013-05-01 03:40:00,
2013-04-30 22:45:00,71.0,55.5,29.78,SSE,161,2.0,5.0,58,0.00,,CLR,0.00,0.00,VWS V14.01,2013-05-01 03:45:00,
2013-04-30 22:50:00,71.0,55.5,29.78,SSE,163,0.0,10.0,58,0.00,,CLR,0.00,0.00,VWS V14.01,2013-05-01 03:50:00,
2013-04-30 22:55:00,70.8,55.8,29.78,SSE,155,3.0,7.0,59,0.00,,CLR,0.00,0.00,VWS V14.01,2013-05-01 03:55:00,
2013-04-30 23:00:00,70.8,55.8,29.78,SSE,159,0.0,6.0,59,0.00,,CLR,0.00,0.00,VWS V14.01,2013-05-01 04:00:00,
2013-04-30 23:01:00,70.8,55.8,29.78,SSE,159,0.0,0.0,59,0.00,,CLR,0.00,0.00,VWS V14.01,2013-05-01 04:01:00,
2013-04-30 23:06:00,70.8,55.8,29.78,SSE,165,0.0,0.0,59,0.00,,CLR,0.00,0.00,VWS V14.01,2013-05-01 04:06:00,
2013-04-30 23:11:00,70.8,55.8,29.78,SSE,163,0.0,0.0,59,0.00,,CLR,0.00,0.00,VWS V14.01,2013-05-01 04:11:00,
2013-04-30 23:16:00,70.6,56.1,29.79,South,169,0.0,0.0,60,0.00,,CLR,0.00,0.00,VWS V14.01,2013-05-01 04:16:00,
2013-04-30 23:21:00,70.6,56.1,29.79,SSE,161,0.0,4.0,60,0.00,,CLR,0.00,0.00,VWS V14.01,2013-05-01 04:21:00,
2013-04-30 23:26:00,70.5,56.0,29.79,South,181,0.0,0.0,60,0.00,,CLR,0.00,0.00,VWS V14.01,2013-05-01 04:26:00,
2013-04-30 23:31:00,70.5,56.0,29.79,SSE,166,0.0,0.0,60,0.00,,CLR,0.00,0.00,VWS V14.01,2013-05-01 04:31:00,
2013-04-30 23:36:00,70.3,55.8,29.79,SSE,167,1.0,1.0,60,0.00,,CLR,0.00,0.00,VWS V14.01,2013-05-01 04:36:00,
2013-04-30 23:41:00,70.1,55.6,29.79,South,169,0.0,0.0,60,0.00,,CLR,0.00,0.00,VWS V14.01,2013-05-01 04:41:00,
2013-04-30 23:46:00,70.1,56.0,29.79,South,171,0.0,0.0,61,0.00,,CLR,0.00,0.00,VWS V14.01,2013-05-01 04:46:00,
2013-04-30 23:51:00,70.0,56.0,29.79,South,182,0.0,5.0,61,0.00,,CLR,0.00,0.00,VWS V14.01,2013-05-01 04:51:00,
2013-04-30 23:56:00,70.0,56.0,29.79,South,173,6.0,6.0,61,0.00,,CLR,0.00,0.00,VWS V14.01,2013-05-01 04:56:00,